»·PEaware :: N929X KHND-KCRQ

N929X :: KHND-KCRQ

FLIGHT INFORMATION

Flight Status: Arrived
Operator: Privately registered:
United States
More flights under this callsign
Pilot: Scott M. (16181)
Aircraft: Unknown
(EPIC)
More flights by this aircraft type
Origin: KHND Henderson
United States
Destination: KCRQ McClellan-Palomar
United States
More flights between these airports :: More routes between these airports
Route:
File this flight plan on PilotEdge
Remarks:
Altitude:
(Current/Filed)
8,500ft
Speed:
(Current/Filed)
180kts
Departed: 10-Jun-18 04:57 PM
Arrived: 10-Jun-18 06:06 PM
Distance/Time
Traveled:
201nm/1:09
Distance/Time
To Go:
Arrived

Flight Plot

Page will automatically refresh every two minutes.

Flight plan parsing failed; only flown route is shown


Map Options




Map Legend


Flown Route
Filed Route
Departure Airport
Arrival Airport
Navaid (VOR, NDB)
Fix

Horizontal Profiles

Position Reports

Time Latitude Longitude Heading Altitude Ground
Speed
10-Jun-18 16:50 35.973107 -115.138230 0 2426ft 0kts
10-Jun-18 16:51 35.973107 -115.138230 0 2426ft 0kts
10-Jun-18 16:52 35.973175 -115.138212 25 2426ft 4kts
10-Jun-18 16:53 35.973841 -115.136923 355 2426ft 0kts
10-Jun-18 16:54 35.976528 -115.136394 5 2416ft 22kts
10-Jun-18 16:55 35.980778 -115.136118 61 2399ft 0kts
10-Jun-18 16:56 35.979729 -115.135306 179 2403ft 39kts
10-Jun-18 16:57 35.953241 -115.135746 185 3121ft 160kts
10-Jun-18 16:58 35.905294 -115.144768 189 4451ft 203kts
10-Jun-18 16:59 35.848095 -115.154961 189 5973ft 212kts
10-Jun-18 17:00 35.790304 -115.164717 189 7547ft 213kts
10-Jun-18 17:01 35.736174 -115.173738 189 8512ft 228kts
10-Jun-18 17:02 35.673150 -115.184221 188 8507ft 221kts
10-Jun-18 17:03 35.613483 -115.194083 188 8498ft 215kts
10-Jun-18 17:04 35.553844 -115.203923 188 8499ft 217kts
10-Jun-18 17:05 35.495838 -115.213483 188 8500ft 218kts
10-Jun-18 17:06 35.435592 -115.223402 188 8619ft 222kts
10-Jun-18 17:07 35.374030 -115.233523 188 8619ft 225kts
10-Jun-18 17:08 35.311606 -115.243751 188 8595ft 228kts
10-Jun-18 17:09 35.250569 -115.253748 189 8560ft 229kts
10-Jun-18 17:10 35.187601 -115.264057 189 8531ft 228kts
10-Jun-18 17:11 35.126813 -115.273989 189 8527ft 213kts
10-Jun-18 17:12 35.069517 -115.283334 190 8523ft 207kts
10-Jun-18 17:13 35.012387 -115.292649 190 8518ft 208kts
10-Jun-18 17:14 34.954862 -115.302017 189 8518ft 208kts
10-Jun-18 17:15 34.898501 -115.311179 189 8517ft 207kts
10-Jun-18 17:16 34.842008 -115.320333 189 8517ft 206kts
10-Jun-18 17:17 34.785588 -115.330721 205 8512ft 204kts
10-Jun-18 17:18 34.735561 -115.361969 209 8517ft 203kts
10-Jun-18 17:19 34.685777 -115.394430 210 8537ft 202kts
10-Jun-18 17:20 34.636549 -115.426804 209 8582ft 202kts
10-Jun-18 17:21 34.587202 -115.459289 209 8634ft 202kts
10-Jun-18 17:22 34.539435 -115.490688 209 8529ft 187kts
10-Jun-18 17:23 34.501099 -115.515887 209 7638ft 200kts
10-Jun-18 17:24 34.452856 -115.547527 210 6690ft 202kts
10-Jun-18 17:25 34.404374 -115.579299 210 6663ft 195kts
10-Jun-18 17:26 34.357281 -115.610119 210 6663ft 190kts
10-Jun-18 17:27 34.310987 -115.640378 210 6663ft 188kts
10-Jun-18 17:28 34.264885 -115.670478 209 6666ft 196kts
10-Jun-18 17:29 34.216038 -115.702328 209 6656ft 202kts
10-Jun-18 17:30 34.186437 -115.721607 209 6656ft 203kts
10-Jun-18 17:31 34.134556 -115.755365 209 7493ft 213kts
10-Jun-18 17:32 34.084654 -115.792493 214 8465ft 210kts
10-Jun-18 17:33 34.035360 -115.832257 215 8654ft 211kts
10-Jun-18 17:34 33.987564 -115.870897 215 8655ft 204kts
10-Jun-18 17:35 33.940531 -115.908906 215 8655ft 203kts
10-Jun-18 17:36 33.894082 -115.946398 215 8655ft 203kts
10-Jun-18 17:37 33.847441 -115.984000 215 8656ft 206kts
10-Jun-18 17:38 33.799310 -116.022751 215 8655ft 210kts
10-Jun-18 17:39 33.750659 -116.061864 215 8655ft 211kts
10-Jun-18 17:40 33.702245 -116.100731 215 8655ft 210kts
10-Jun-18 17:41 33.653972 -116.139432 215 8655ft 210kts
10-Jun-18 17:42 33.606429 -116.179337 217 8699ft 207kts
10-Jun-18 17:43 33.559934 -116.220066 217 8701ft 208kts
10-Jun-18 17:44 33.513207 -116.261022 217 8701ft 209kts
10-Jun-18 17:45 33.466508 -116.301918 217 8700ft 209kts
10-Jun-18 17:46 33.419849 -116.342726 217 8700ft 209kts
10-Jun-18 17:47 33.373143 -116.383520 217 8700ft 209kts
10-Jun-18 17:48 33.347248 -116.430306 251 8701ft 206kts
10-Jun-18 17:49 33.329551 -116.495134 253 8700ft 206kts
10-Jun-18 17:50 33.313052 -116.559483 254 8699ft 197kts
10-Jun-18 17:51 33.296808 -116.623715 254 7980ft 208kts
10-Jun-18 17:52 33.280396 -116.688686 253 7181ft 206kts
10-Jun-18 17:53 33.264234 -116.752550 253 6698ft 188kts
10-Jun-18 17:54 33.249917 -116.808993 253 6499ft 170kts
10-Jun-18 17:55 33.236485 -116.861854 253 6217ft 168kts
10-Jun-18 17:56 33.222921 -116.915149 253 5669ft 168kts
10-Jun-18 17:57 33.209450 -116.967991 254 5118ft 164kts
10-Jun-18 17:58 33.196331 -117.019371 254 4549ft 158kts
10-Jun-18 17:59 33.181868 -117.067366 249 3988ft 154kts
10-Jun-18 18:00 33.167540 -117.113205 250 3518ft 132kts
10-Jun-18 18:01 33.155795 -117.149914 249 2877ft 112kts
10-Jun-18 18:02 33.146094 -117.184294 256 2101ft 102kts
10-Jun-18 18:03 33.139510 -117.212346 258 1393ft 82kts
10-Jun-18 18:04 33.134511 -117.239444 259 932ft 84kts
10-Jun-18 18:05 33.130369 -117.266430 261 457ft 82kts
10-Jun-18 18:06 33.127737 -117.279734 228 309ft 0kts
10-Jun-18 18:07 33.127101 -117.279656 78 309ft 1kts

Navigation Log

Ident Type
Flight plan parsing failed, navigation log unavailable